sensor_id;sensor_type;location;lat;lon;timestamp;P1;durP1;ratioP1;P2;durP2;ratioP2
30681;SDS011;17439;48.092;11.842;2024-02-04T00:01:08;6.68;;;3.40;;
30681;SDS011;17439;48.092;11.842;2024-02-04T00:03:35;5.68;;;3.45;;
30681;SDS011;17439;48.092;11.842;2024-02-04T00:06:02;6.00;;;3.13;;
30681;SDS011;17439;48.092;11.842;2024-02-04T00:08:29;6.43;;;3.60;;
30681;SDS011;17439;48.092;11.842;2024-02-04T00:10:55;6.75;;;3.15;;
30681;SDS011;17439;48.092;11.842;2024-02-04T00:13:22;5.80;;;3.30;;
30681;SDS011;17439;48.092;11.842;2024-02-04T00:15:49;6.30;;;3.90;;
30681;SDS011;17439;48.092;11.842;2024-02-04T00:18:16;7.35;;;3.70;;
30681;SDS011;17439;48.092;11.842;2024-02-04T00:20:43;18.25;;;4.05;;
30681;SDS011;17439;48.092;11.842;2024-02-04T00:23:09;6.45;;;4.28;;
30681;SDS011;17439;48.092;11.842;2024-02-04T00:25:36;5.05;;;2.90;;
30681;SDS011;17439;48.092;11.842;2024-02-04T00:28:03;9.18;;;3.78;;
30681;SDS011;17439;48.092;11.842;2024-02-04T00:30:30;4.63;;;3.03;;
30681;SDS011;17439;48.092;11.842;2024-02-04T00:32:57;4.38;;;2.72;;
30681;SDS011;17439;48.092;11.842;2024-02-04T00:35:23;4.80;;;2.90;;
30681;SDS011;17439;48.092;11.842;2024-02-04T00:37:50;4.78;;;2.63;;
30681;SDS011;17439;48.092;11.842;2024-02-04T00:40:17;4.68;;;2.78;;
30681;SDS011;17439;48.092;11.842;2024-02-04T00:42:44;6.03;;;2.90;;
30681;SDS011;17439;48.092;11.842;2024-02-04T00:45:11;5.93;;;3.25;;
30681;SDS011;17439;48.092;11.842;2024-02-04T00:47:37;6.25;;;3.28;;
30681;SDS011;17439;48.092;11.842;2024-02-04T00:50:05;5.70;;;3.03;;
30681;SDS011;17439;48.092;11.842;2024-02-04T00:52:32;5.88;;;3.35;;
30681;SDS011;17439;48.092;11.842;2024-02-04T00:54:59;5.45;;;3.22;;
30681;SDS011;17439;48.092;11.842;2024-02-04T00:57:25;4.57;;;3.00;;
30681;SDS011;17439;48.092;11.842;2024-02-04T00:59:52;6.45;;;3.80;;
30681;SDS011;17439;48.092;11.842;2024-02-04T01:02:19;7.63;;;3.43;;
30681;SDS011;17439;48.092;11.842;2024-02-04T01:04:46;5.78;;;3.45;;
30681;SDS011;17439;48.092;11.842;2024-02-04T01:07:13;4.80;;;3.30;;
30681;SDS011;17439;48.092;11.842;2024-02-04T01:09:40;4.72;;;3.38;;
30681;SDS011;17439;48.092;11.842;2024-02-04T01:12:07;5.38;;;2.50;;
30681;SDS011;17439;48.092;11.842;2024-02-04T01:14:34;6.53;;;3.40;;
30681;SDS011;17439;48.092;11.842;2024-02-04T01:17:01;4.10;;;2.80;;
30681;SDS011;17439;48.092;11.842;2024-02-04T01:19:28;6.35;;;3.13;;
30681;SDS011;17439;48.092;11.842;2024-02-04T01:21:55;3.97;;;2.47;;
30681;SDS011;17439;48.092;11.842;2024-02-04T01:24:21;7.25;;;3.45;;
30681;SDS011;17439;48.092;11.842;2024-02-04T01:26:48;4.75;;;2.80;;
30681;SDS011;17439;48.092;11.842;2024-02-04T01:29:15;4.70;;;2.80;;
30681;SDS011;17439;48.092;11.842;2024-02-04T01:31:41;5.95;;;2.92;;
30681;SDS011;17439;48.092;11.842;2024-02-04T01:34:08;4.05;;;2.67;;
30681;SDS011;17439;48.092;11.842;2024-02-04T01:36:35;5.97;;;3.45;;
30681;SDS011;17439;48.092;11.842;2024-02-04T01:39:02;4.72;;;2.65;;
30681;SDS011;17439;48.092;11.842;2024-02-04T01:41:28;5.65;;;3.17;;
30681;SDS011;17439;48.092;11.842;2024-02-04T01:43:55;4.93;;;2.83;;
30681;SDS011;17439;48.092;11.842;2024-02-04T01:46:22;5.40;;;3.30;;
30681;SDS011;17439;48.092;11.842;2024-02-04T01:48:49;5.82;;;3.17;;
30681;SDS011;17439;48.092;11.842;2024-02-04T01:51:16;5.40;;;3.15;;
30681;SDS011;17439;48.092;11.842;2024-02-04T01:53:45;5.38;;;3.42;;
30681;SDS011;17439;48.092;11.842;2024-02-04T01:56:12;5.57;;;3.33;;
30681;SDS011;17439;48.092;11.842;2024-02-04T01:58:40;7.07;;;3.83;;
30681;SDS011;17439;48.092;11.842;2024-02-04T02:01:09;7.40;;;4.15;;
30681;SDS011;17439;48.092;11.842;2024-02-04T02:03:36;6.80;;;4.03;;
30681;SDS011;17439;48.092;11.842;2024-02-04T02:06:05;6.30;;;3.70;;
30681;SDS011;17439;48.092;11.842;2024-02-04T02:08:32;6.38;;;3.22;;
30681;SDS011;17439;48.092;11.842;2024-02-04T02:11:07;6.43;;;3.93;;
30681;SDS011;17439;48.092;11.842;2024-02-04T02:13:39;5.25;;;3.60;;
30681;SDS011;17439;48.092;11.842;2024-02-04T02:16:14;7.32;;;3.95;;
30681;SDS011;17439;48.092;11.842;2024-02-04T02:19:00;5.82;;;3.45;;
30681;SDS011;17439;48.092;11.842;2024-02-04T02:21:56;7.07;;;3.67;;
30681;SDS011;17439;48.092;11.842;2024-02-04T02:24:35;6.10;;;3.83;;
30681;SDS011;17439;48.092;11.842;2024-02-04T02:27:04;6.13;;;3.47;;
30681;SDS011;17439;48.092;11.842;2024-02-04T02:29:31;5.45;;;3.20;;
30681;SDS011;17439;48.092;11.842;2024-02-04T02:31:58;7.00;;;3.47;;
30681;SDS011;17439;48.092;11.842;2024-02-04T02:34:26;6.43;;;3.25;;
30681;SDS011;17439;48.092;11.842;2024-02-04T02:37:09;5.60;;;3.60;;
30681;SDS011;17439;48.092;11.842;2024-02-04T02:39:59;5.43;;;3.40;;
30681;SDS011;17439;48.092;11.842;2024-02-04T02:42:32;6.88;;;3.67;;
30681;SDS011;17439;48.092;11.842;2024-02-04T02:44:59;6.63;;;3.80;;
30681;SDS011;17439;48.092;11.842;2024-02-04T02:47:27;6.82;;;3.47;;
30681;SDS011;17439;48.092;11.842;2024-02-04T02:49:56;6.70;;;3.97;;
30681;SDS011;17439;48.092;11.842;2024-02-04T02:52:23;5.07;;;3.20;;
30681;SDS011;17439;48.092;11.842;2024-02-04T02:54:49;5.05;;;3.25;;
30681;SDS011;17439;48.092;11.842;2024-02-04T02:57:16;6.00;;;3.30;;
30681;SDS011;17439;48.092;11.842;2024-02-04T02:59:43;7.25;;;2.97;;
30681;SDS011;17439;48.092;11.842;2024-02-04T03:02:10;6.32;;;3.20;;
30681;SDS011;17439;48.092;11.842;2024-02-04T03:04:36;4.38;;;2.78;;
30681;SDS011;17439;48.092;11.842;2024-02-04T03:07:03;7.07;;;3.25;;
30681;SDS011;17439;48.092;11.842;2024-02-04T03:09:30;6.10;;;3.25;;
30681;SDS011;17439;48.092;11.842;2024-02-04T03:11:57;6.60;;;3.20;;
30681;SDS011;17439;48.092;11.842;2024-02-04T03:14:24;6.45;;;3.78;;
30681;SDS011;17439;48.092;11.842;2024-02-04T03:16:51;5.93;;;3.08;;
30681;SDS011;17439;48.092;11.842;2024-02-04T03:19:20;5.80;;;3.00;;
30681;SDS011;17439;48.092;11.842;2024-02-04T03:21:47;4.53;;;3.05;;
30681;SDS011;17439;48.092;11.842;2024-02-04T03:24:15;7.78;;;3.75;;
30681;SDS011;17439;48.092;11.842;2024-02-04T03:26:42;7.07;;;3.50;;
30681;SDS011;17439;48.092;11.842;2024-02-04T03:29:08;4.43;;;2.53;;
30681;SDS011;17439;48.092;11.842;2024-02-04T03:31:35;6.05;;;2.95;;
30681;SDS011;17439;48.092;11.842;2024-02-04T03:34:02;7.32;;;3.00;;
30681;SDS011;17439;48.092;11.842;2024-02-04T03:36:30;5.95;;;3.30;;
30681;SDS011;17439;48.092;11.842;2024-02-04T03:38:57;6.00;;;3.20;;
30681;SDS011;17439;48.092;11.842;2024-02-04T03:41:24;5.32;;;3.00;;
30681;SDS011;17439;48.092;11.842;2024-02-04T03:43:51;5.35;;;2.90;;
30681;SDS011;17439;48.092;11.842;2024-02-04T03:46:18;7.47;;;2.65;;
30681;SDS011;17439;48.092;11.842;2024-02-04T03:48:44;6.43;;;3.08;;
30681;SDS011;17439;48.092;11.842;2024-02-04T03:51:17;4.63;;;2.80;;
30681;SDS011;17439;48.092;11.842;2024-02-04T03:53:47;4.47;;;3.08;;
30681;SDS011;17439;48.092;11.842;2024-02-04T03:58:41;4.78;;;2.90;;
30681;SDS011;17439;48.092;11.842;2024-02-04T04:01:10;5.82;;;2.85;;
30681;SDS011;17439;48.092;11.842;2024-02-04T04:03:39;6.65;;;3.10;;
30681;SDS011;17439;48.092;11.842;2024-02-04T04:06:09;6.15;;;4.05;;
30681;SDS011;17439;48.092;11.842;2024-02-04T04:08:36;6.07;;;3.20;;
30681;SDS011;17439;48.092;11.842;2024-02-04T04:11:04;5.30;;;2.80;;
30681;SDS011;17439;48.092;11.842;2024-02-04T04:13:31;7.23;;;3.07;;
30681;SDS011;17439;48.092;11.842;2024-02-04T04:15:57;3.85;;;2.28;;
30681;SDS011;17439;48.092;11.842;2024-02-04T04:18:24;4.50;;;2.75;;
30681;SDS011;17439;48.092;11.842;2024-02-04T04:20:51;4.82;;;2.65;;
30681;SDS011;17439;48.092;11.842;2024-02-04T04:23:18;5.68;;;3.20;;
30681;SDS011;17439;48.092;11.842;2024-02-04T04:25:45;4.22;;;2.60;;
30681;SDS011;17439;48.092;11.842;2024-02-04T04:28:11;5.80;;;2.78;;
30681;SDS011;17439;48.092;11.842;2024-02-04T04:30:38;4.75;;;2.70;;
30681;SDS011;17439;48.092;11.842;2024-02-04T04:33:05;4.68;;;3.38;;
30681;SDS011;17439;48.092;11.842;2024-02-04T04:35:32;3.58;;;2.35;;
30681;SDS011;17439;48.092;11.842;2024-02-04T04:37:59;5.43;;;2.95;;
30681;SDS011;17439;48.092;11.842;2024-02-04T04:40:25;4.50;;;2.90;;
30681;SDS011;17439;48.092;11.842;2024-02-04T04:42:52;4.85;;;2.65;;
30681;SDS011;17439;48.092;11.842;2024-02-04T04:45:19;3.88;;;2.10;;
30681;SDS011;17439;48.092;11.842;2024-02-04T04:47:45;4.18;;;2.40;;
30681;SDS011;17439;48.092;11.842;2024-02-04T04:50:12;4.20;;;2.47;;
30681;SDS011;17439;48.092;11.842;2024-02-04T04:52:39;3.70;;;2.40;;
30681;SDS011;17439;48.092;11.842;2024-02-04T04:55:07;3.92;;;2.50;;
30681;SDS011;17439;48.092;11.842;2024-02-04T04:57:34;3.42;;;2.30;;
30681;SDS011;17439;48.092;11.842;2024-02-04T05:00:01;4.18;;;2.60;;
30681;SDS011;17439;48.092;11.842;2024-02-04T05:02:27;8.25;;;3.00;;
30681;SDS011;17439;48.092;11.842;2024-02-04T05:04:54;3.90;;;2.22;;
30681;SDS011;17439;48.092;11.842;2024-02-04T05:07:21;5.07;;;2.60;;
30681;SDS011;17439;48.092;11.842;2024-02-04T05:09:48;4.43;;;2.25;;
30681;SDS011;17439;48.092;11.842;2024-02-04T05:12:15;4.95;;;2.80;;
30681;SDS011;17439;48.092;11.842;2024-02-04T05:14:41;6.40;;;2.85;;
30681;SDS011;17439;48.092;11.842;2024-02-04T05:17:08;5.13;;;2.33;;
30681;SDS011;17439;48.092;11.842;2024-02-04T05:19:35;4.80;;;2.70;;
30681;SDS011;17439;48.092;11.842;2024-02-04T05:22:02;3.08;;;1.90;;
30681;SDS011;17439;48.092;11.842;2024-02-04T05:24:29;3.60;;;2.20;;
30681;SDS011;17439;48.092;11.842;2024-02-04T05:26:56;3.63;;;1.75;;
30681;SDS011;17439;48.092;11.842;2024-02-04T05:29:22;4.13;;;1.70;;
30681;SDS011;17439;48.092;11.842;2024-02-04T05:31:49;3.35;;;1.67;;
30681;SDS011;17439;48.092;11.842;2024-02-04T05:34:17;3.80;;;1.90;;
30681;SDS011;17439;48.092;11.842;2024-02-04T05:36:44;3.58;;;1.75;;
30681;SDS011;17439;48.092;11.842;2024-02-04T05:39:13;3.38;;;2.10;;
30681;SDS011;17439;48.092;11.842;2024-02-04T05:41:41;4.28;;;1.90;;
30681;SDS011;17439;48.092;11.842;2024-02-04T05:44:09;2.13;;;1.43;;
30681;SDS011;17439;48.092;11.842;2024-02-04T05:46:36;5.20;;;1.70;;
30681;SDS011;17439;48.092;11.842;2024-02-04T05:49:03;3.22;;;1.60;;
30681;SDS011;17439;48.092;11.842;2024-02-04T05:51:31;2.35;;;1.20;;
30681;SDS011;17439;48.092;11.842;2024-02-04T05:53:58;2.63;;;1.20;;
30681;SDS011;17439;48.092;11.842;2024-02-04T05:56:25;7.78;;;1.88;;
30681;SDS011;17439;48.092;11.842;2024-02-04T05:58:52;6.05;;;2.15;;
30681;SDS011;17439;48.092;11.842;2024-02-04T06:01:18;3.13;;;1.40;;
30681;SDS011;17439;48.092;11.842;2024-02-04T06:03:45;6.93;;;1.63;;
30681;SDS011;17439;48.092;11.842;2024-02-04T06:06:15;3.95;;;1.73;;
30681;SDS011;17439;48.092;11.842;2024-02-04T06:08:42;4.03;;;1.55;;
30681;SDS011;17439;48.092;11.842;2024-02-04T06:11:10;4.50;;;1.35;;
30681;SDS011;17439;48.092;11.842;2024-02-04T06:16:07;2.40;;;1.27;;
30681;SDS011;17439;48.092;11.842;2024-02-04T06:18:35;3.03;;;1.63;;
30681;SDS011;17439;48.092;11.842;2024-02-04T06:21:03;3.85;;;2.13;;
30681;SDS011;17439;48.092;11.842;2024-02-04T06:23:30;8.38;;;1.55;;
30681;SDS011;17439;48.092;11.842;2024-02-04T06:25:57;3.33;;;1.73;;
30681;SDS011;17439;48.092;11.842;2024-02-04T06:28:24;3.38;;;1.70;;
30681;SDS011;17439;48.092;11.842;2024-02-04T06:30:51;4.50;;;2.00;;
30681;SDS011;17439;48.092;11.842;2024-02-04T06:33:18;3.53;;;1.70;;
30681;SDS011;17439;48.092;11.842;2024-02-04T06:35:45;3.42;;;1.80;;
30681;SDS011;17439;48.092;11.842;2024-02-04T06:38:12;4.78;;;2.20;;
30681;SDS011;17439;48.092;11.842;2024-02-04T06:40:38;3.15;;;1.95;;
30681;SDS011;17439;48.092;11.842;2024-02-04T06:43:05;5.65;;;2.35;;
30681;SDS011;17439;48.092;11.842;2024-02-04T06:45:32;4.97;;;2.08;;
30681;SDS011;17439;48.092;11.842;2024-02-04T06:47:59;4.00;;;2.10;;
30681;SDS011;17439;48.092;11.842;2024-02-04T06:50:25;3.97;;;1.90;;
30681;SDS011;17439;48.092;11.842;2024-02-04T06:52:52;5.15;;;2.30;;
30681;SDS011;17439;48.092;11.842;2024-02-04T06:55:19;5.45;;;2.15;;
30681;SDS011;17439;48.092;11.842;2024-02-04T06:57:46;4.60;;;2.10;;
30681;SDS011;17439;48.092;11.842;2024-02-04T07:00:12;7.63;;;2.00;;
30681;SDS011;17439;48.092;11.842;2024-02-04T07:02:40;6.10;;;2.20;;
30681;SDS011;17439;48.092;11.842;2024-02-04T07:05:06;3.92;;;2.20;;
30681;SDS011;17439;48.092;11.842;2024-02-04T07:07:33;5.53;;;2.13;;
30681;SDS011;17439;48.092;11.842;2024-02-04T07:10:00;8.45;;;3.25;;
30681;SDS011;17439;48.092;11.842;2024-02-04T07:12:28;8.85;;;2.55;;
30681;SDS011;17439;48.092;11.842;2024-02-04T07:14:55;3.55;;;1.85;;
30681;SDS011;17439;48.092;11.842;2024-02-04T07:17:21;7.13;;;2.42;;
30681;SDS011;17439;48.092;11.842;2024-02-04T07:19:48;3.95;;;2.15;;
30681;SDS011;17439;48.092;11.842;2024-02-04T07:22:15;5.85;;;2.42;;
30681;SDS011;17439;48.092;11.842;2024-02-04T07:24:42;6.10;;;2.60;;
30681;SDS011;17439;48.092;11.842;2024-02-04T07:27:08;5.78;;;1.80;;
30681;SDS011;17439;48.092;11.842;2024-02-04T07:29:35;7.47;;;2.20;;
30681;SDS011;17439;48.092;11.842;2024-02-04T07:32:02;4.53;;;2.78;;
30681;SDS011;17439;48.092;11.842;2024-02-04T07:34:29;4.95;;;2.92;;
30681;SDS011;17439;48.092;11.842;2024-02-04T07:36:56;11.98;;;3.95;;
30681;SDS011;17439;48.092;11.842;2024-02-04T07:39:23;4.13;;;2.72;;
30681;SDS011;17439;48.092;11.842;2024-02-04T07:41:49;6.03;;;2.83;;
30681;SDS011;17439;48.092;11.842;2024-02-04T07:44:16;6.00;;;2.97;;
30681;SDS011;17439;48.092;11.842;2024-02-04T07:46:43;6.20;;;3.13;;
30681;SDS011;17439;48.092;11.842;2024-02-04T07:49:09;5.47;;;2.58;;
30681;SDS011;17439;48.092;11.842;2024-02-04T07:51:36;7.88;;;3.42;;
30681;SDS011;17439;48.092;11.842;2024-02-04T07:54:03;8.18;;;4.03;;
30681;SDS011;17439;48.092;11.842;2024-02-04T07:56:30;8.15;;;3.47;;
30681;SDS011;17439;48.092;11.842;2024-02-04T07:58:57;8.05;;;3.63;;
30681;SDS011;17439;48.092;11.842;2024-02-04T08:01:24;5.90;;;3.53;;
30681;SDS011;17439;48.092;11.842;2024-02-04T08:03:51;10.93;;;3.97;;
30681;SDS011;17439;48.092;11.842;2024-02-04T08:06:18;5.68;;;3.15;;
30681;SDS011;17439;48.092;11.842;2024-02-04T08:08:44;6.80;;;3.47;;
30681;SDS011;17439;48.092;11.842;2024-02-04T08:11:18;9.70;;;4.05;;
30681;SDS011;17439;48.092;11.842;2024-02-04T08:13:45;8.27;;;3.92;;
30681;SDS011;17439;48.092;11.842;2024-02-04T08:16:12;7.85;;;3.67;;
30681;SDS011;17439;48.092;11.842;2024-02-04T08:18:39;9.35;;;3.50;;
30681;SDS011;17439;48.092;11.842;2024-02-04T08:21:06;8.83;;;4.10;;
30681;SDS011;17439;48.092;11.842;2024-02-04T08:23:33;9.68;;;3.80;;
30681;SDS011;17439;48.092;11.842;2024-02-04T08:25:59;11.52;;;4.05;;
30681;SDS011;17439;48.092;11.842;2024-02-04T08:28:26;8.57;;;3.40;;
30681;SDS011;17439;48.092;11.842;2024-02-04T08:30:53;8.45;;;3.50;;
30681;SDS011;17439;48.092;11.842;2024-02-04T08:33:20;11.73;;;3.10;;
30681;SDS011;17439;48.092;11.842;2024-02-04T08:35:47;11.02;;;3.30;;
30681;SDS011;17439;48.092;11.842;2024-02-04T08:38:14;10.60;;;3.78;;
30681;SDS011;17439;48.092;11.842;2024-02-04T08:40:41;6.80;;;2.90;;
30681;SDS011;17439;48.092;11.842;2024-02-04T08:43:08;5.63;;;3.15;;
30681;SDS011;17439;48.092;11.842;2024-02-04T08:45:35;15.98;;;3.15;;
30681;SDS011;17439;48.092;11.842;2024-02-04T08:48:02;14.05;;;3.75;;
30681;SDS011;17439;48.092;11.842;2024-02-04T08:50:29;9.32;;;2.95;;
30681;SDS011;17439;48.092;11.842;2024-02-04T08:52:56;7.78;;;2.83;;
30681;SDS011;17439;48.092;11.842;2024-02-04T08:55:22;4.85;;;2.65;;
30681;SDS011;17439;48.092;11.842;2024-02-04T08:57:49;7.20;;;2.47;;
30681;SDS011;17439;48.092;11.842;2024-02-04T09:00:16;7.80;;;2.63;;
30681;SDS011;17439;48.092;11.842;2024-02-04T09:02:43;8.48;;;3.08;;
30681;SDS011;17439;48.092;11.842;2024-02-04T09:05:10;4.53;;;2.22;;
30681;SDS011;17439;48.092;11.842;2024-02-04T09:07:37;4.80;;;2.30;;
30681;SDS011;17439;48.092;11.842;2024-02-04T09:10:04;7.50;;;2.60;;
30681;SDS011;17439;48.092;11.842;2024-02-04T09:12:31;6.75;;;1.95;;
30681;SDS011;17439;48.092;11.842;2024-02-04T09:14:58;7.90;;;2.83;;
30681;SDS011;17439;48.092;11.842;2024-02-04T09:17:25;6.60;;;2.72;;
30681;SDS011;17439;48.092;11.842;2024-02-04T09:19:51;6.70;;;2.47;;
30681;SDS011;17439;48.092;11.842;2024-02-04T09:24:46;6.80;;;2.65;;
30681;SDS011;17439;48.092;11.842;2024-02-04T09:27:13;7.18;;;2.10;;
30681;SDS011;17439;48.092;11.842;2024-02-04T09:29:40;7.60;;;3.63;;
30681;SDS011;17439;48.092;11.842;2024-02-04T09:32:07;3.70;;;1.83;;
30681;SDS011;17439;48.092;11.842;2024-02-04T09:34:34;3.20;;;1.52;;
30681;SDS011;17439;48.092;11.842;2024-02-04T09:37:01;7.40;;;2.00;;
30681;SDS011;17439;48.092;11.842;2024-02-04T09:39:28;10.55;;;2.45;;
30681;SDS011;17439;48.092;11.842;2024-02-04T09:41:55;9.35;;;2.00;;
30681;SDS011;17439;48.092;11.842;2024-02-04T09:44:21;5.65;;;2.28;;
30681;SDS011;17439;48.092;11.842;2024-02-04T09:49:16;8.88;;;3.50;;
30681;SDS011;17439;48.092;11.842;2024-02-04T09:51:43;9.25;;;3.00;;
30681;SDS011;17439;48.092;11.842;2024-02-04T09:54:11;8.25;;;2.92;;
30681;SDS011;17439;48.092;11.842;2024-02-04T09:56:38;8.13;;;2.63;;
30681;SDS011;17439;48.092;11.842;2024-02-04T09:59:07;8.15;;;2.28;;
30681;SDS011;17439;48.092;11.842;2024-02-04T10:01:34;10.35;;;3.75;;
30681;SDS011;17439;48.092;11.842;2024-02-04T10:04:02;6.60;;;2.47;;
30681;SDS011;17439;48.092;11.842;2024-02-04T10:06:31;13.52;;;3.67;;
30681;SDS011;17439;48.092;11.842;2024-02-04T10:08:58;7.93;;;2.85;;
30681;SDS011;17439;48.092;11.842;2024-02-04T10:11:25;8.73;;;3.65;;
30681;SDS011;17439;48.092;11.842;2024-02-04T10:13:51;6.40;;;2.90;;
30681;SDS011;17439;48.092;11.842;2024-02-04T10:16:18;6.03;;;2.88;;
30681;SDS011;17439;48.092;11.842;2024-02-04T10:18:47;7.53;;;2.83;;
30681;SDS011;17439;48.092;11.842;2024-02-04T10:23:48;4.43;;;2.00;;
30681;SDS011;17439;48.092;11.842;2024-02-04T10:26:15;4.15;;;2.42;;
30681;SDS011;17439;48.092;11.842;2024-02-04T10:28:46;6.90;;;2.80;;
30681;SDS011;17439;48.092;11.842;2024-02-04T10:31:14;5.30;;;2.47;;
30681;SDS011;17439;48.092;11.842;2024-02-04T10:33:41;5.95;;;2.83;;
30681;SDS011;17439;48.092;11.842;2024-02-04T10:36:08;13.68;;;2.92;;
30681;SDS011;17439;48.092;11.842;2024-02-04T10:38:35;7.68;;;2.10;;
30681;SDS011;17439;48.092;11.842;2024-02-04T10:41:02;6.13;;;2.25;;
30681;SDS011;17439;48.092;11.842;2024-02-04T10:43:31;7.95;;;2.40;;
30681;SDS011;17439;48.092;11.842;2024-02-04T10:45:59;6.72;;;2.70;;
30681;SDS011;17439;48.092;11.842;2024-02-04T10:48:30;9.02;;;2.58;;
30681;SDS011;17439;48.092;11.842;2024-02-04T10:51:02;10.95;;;2.42;;
30681;SDS011;17439;48.092;11.842;2024-02-04T10:53:29;3.05;;;1.90;;
30681;SDS011;17439;48.092;11.842;2024-02-04T10:55:58;7.57;;;2.53;;
30681;SDS011;17439;48.092;11.842;2024-02-04T10:58:28;5.38;;;2.70;;
30681;SDS011;17439;48.092;11.842;2024-02-04T11:00:56;2.05;;;1.48;;
30681;SDS011;17439;48.092;11.842;2024-02-04T11:03:23;8.65;;;2.30;;
30681;SDS011;17439;48.092;11.842;2024-02-04T11:05:50;4.00;;;1.92;;
30681;SDS011;17439;48.092;11.842;2024-02-04T11:08:18;3.40;;;2.37;;
30681;SDS011;17439;48.092;11.842;2024-02-04T11:10:45;5.75;;;2.03;;
30681;SDS011;17439;48.092;11.842;2024-02-04T11:13:11;10.27;;;2.22;;
30681;SDS011;17439;48.092;11.842;2024-02-04T11:15:39;6.45;;;2.03;;
30681;SDS011;17439;48.092;11.842;2024-02-04T11:21:06;4.25;;;1.58;;
30681;SDS011;17439;48.092;11.842;2024-02-04T11:26:15;3.42;;;1.45;;
30681;SDS011;17439;48.092;11.842;2024-02-04T11:28:42;3.40;;;1.38;;
30681;SDS011;17439;48.092;11.842;2024-02-04T11:31:13;4.18;;;1.70;;
30681;SDS011;17439;48.092;11.842;2024-02-04T11:33:41;3.70;;;2.15;;
30681;SDS011;17439;48.092;11.842;2024-02-04T11:36:12;4.47;;;1.60;;
30681;SDS011;17439;48.092;11.842;2024-02-04T11:38:40;4.65;;;1.48;;
30681;SDS011;17439;48.092;11.842;2024-02-04T11:41:07;5.63;;;1.30;;
30681;SDS011;17439;48.092;11.842;2024-02-04T11:43:34;5.90;;;1.38;;
30681;SDS011;17439;48.092;11.842;2024-02-04T11:46:03;4.15;;;1.30;;
30681;SDS011;17439;48.092;11.842;2024-02-04T11:48:34;3.42;;;1.45;;
30681;SDS011;17439;48.092;11.842;2024-02-04T11:51:03;5.35;;;1.27;;
30681;SDS011;17439;48.092;11.842;2024-02-04T11:53:32;2.22;;;1.35;;
30681;SDS011;17439;48.092;11.842;2024-02-04T11:56:00;4.13;;;1.17;;
30681;SDS011;17439;48.092;11.842;2024-02-04T11:58:27;4.38;;;1.77;;
30681;SDS011;17439;48.092;11.842;2024-02-04T12:00:56;3.30;;;1.10;;
30681;SDS011;17439;48.092;11.842;2024-02-04T12:05:57;3.67;;;0.93;;
30681;SDS011;17439;48.092;11.842;2024-02-04T12:08:24;3.35;;;1.42;;
30681;SDS011;17439;48.092;11.842;2024-02-04T12:10:53;2.05;;;0.82;;
30681;SDS011;17439;48.092;11.842;2024-02-04T12:13:20;2.47;;;0.80;;
30681;SDS011;17439;48.092;11.842;2024-02-04T12:15:47;2.90;;;0.95;;
30681;SDS011;17439;48.092;11.842;2024-02-04T12:18:14;2.10;;;1.30;;
30681;SDS011;17439;48.092;11.842;2024-02-04T12:20:41;4.07;;;1.00;;
30681;SDS011;17439;48.092;11.842;2024-02-04T12:23:08;3.53;;;1.08;;
30681;SDS011;17439;48.092;11.842;2024-02-04T12:25:35;3.00;;;0.70;;
30681;SDS011;17439;48.092;11.842;2024-02-04T12:28:04;1.13;;;0.55;;
30681;SDS011;17439;48.092;11.842;2024-02-04T12:30:32;1.35;;;0.75;;
30681;SDS011;17439;48.092;11.842;2024-02-04T12:33:00;1.52;;;0.60;;
30681;SDS011;17439;48.092;11.842;2024-02-04T12:35:28;4.35;;;1.02;;
30681;SDS011;17439;48.092;11.842;2024-02-04T12:37:56;5.32;;;0.52;;
30681;SDS011;17439;48.092;11.842;2024-02-04T12:40:27;2.53;;;0.73;;
30681;SDS011;17439;48.092;11.842;2024-02-04T12:42:56;4.72;;;0.88;;
30681;SDS011;17439;48.092;11.842;2024-02-04T12:45:31;1.58;;;0.70;;
30681;SDS011;17439;48.092;11.842;2024-02-04T12:47:58;6.22;;;1.00;;
30681;SDS011;17439;48.092;11.842;2024-02-04T12:50:25;3.83;;;1.25;;
30681;SDS011;17439;48.092;11.842;2024-02-04T12:53:02;2.83;;;0.75;;
30681;SDS011;17439;48.092;11.842;2024-02-04T12:55:31;2.90;;;0.80;;
30681;SDS011;17439;48.092;11.842;2024-02-04T12:58:06;1.23;;;0.63;;
30681;SDS011;17439;48.092;11.842;2024-02-04T13:00:36;2.55;;;0.77;;
30681;SDS011;17439;48.092;11.842;2024-02-04T13:03:04;4.18;;;1.02;;
30681;SDS011;17439;48.092;11.842;2024-02-04T13:05:32;3.83;;;1.58;;
30681;SDS011;17439;48.092;11.842;2024-02-04T13:07:59;1.50;;;0.60;;
30681;SDS011;17439;48.092;11.842;2024-02-04T13:10:28;3.20;;;1.23;;
30681;SDS011;17439;48.092;11.842;2024-02-04T13:13:02;5.45;;;0.80;;
30681;SDS011;17439;48.092;11.842;2024-02-04T13:15:31;0.90;;;0.60;;
30681;SDS011;17439;48.092;11.842;2024-02-04T13:17:59;5.65;;;1.00;;
30681;SDS011;17439;48.092;11.842;2024-02-04T13:20:26;3.43;;;0.90;;
30681;SDS011;17439;48.092;11.842;2024-02-04T13:22:57;2.72;;;0.88;;
30681;SDS011;17439;48.092;11.842;2024-02-04T13:25:24;5.78;;;1.00;;
30681;SDS011;17439;48.092;11.842;2024-02-04T13:27:51;3.25;;;0.55;;
30681;SDS011;17439;48.092;11.842;2024-02-04T13:30:18;8.00;;;1.10;;
30681;SDS011;17439;48.092;11.842;2024-02-04T13:32:46;4.90;;;1.05;;
30681;SDS011;17439;48.092;11.842;2024-02-04T13:35:12;3.25;;;0.73;;
30681;SDS011;17439;48.092;11.842;2024-02-04T13:37:46;5.15;;;1.23;;
30681;SDS011;17439;48.092;11.842;2024-02-04T13:42:41;1.80;;;0.73;;
30681;SDS011;17439;48.092;11.842;2024-02-04T13:45:08;9.23;;;0.80;;
30681;SDS011;17439;48.092;11.842;2024-02-04T13:47:35;2.87;;;1.13;;
30681;SDS011;17439;48.092;11.842;2024-02-04T13:50:03;2.47;;;1.10;;
30681;SDS011;17439;48.092;11.842;2024-02-04T13:52:30;5.67;;;1.57;;
30681;SDS011;17439;48.092;11.842;2024-02-04T13:54:56;6.00;;;1.40;;
30681;SDS011;17439;48.092;11.842;2024-02-04T13:57:23;7.80;;;2.25;;
30681;SDS011;17439;48.092;11.842;2024-02-04T13:59:50;3.45;;;1.10;;
30681;SDS011;17439;48.092;11.842;2024-02-04T14:02:17;2.50;;;1.05;;
30681;SDS011;17439;48.092;11.842;2024-02-04T14:04:44;4.30;;;1.05;;
30681;SDS011;17439;48.092;11.842;2024-02-04T14:07:11;2.38;;;1.00;;
30681;SDS011;17439;48.092;11.842;2024-02-04T14:09:38;3.30;;;0.85;;
30681;SDS011;17439;48.092;11.842;2024-02-04T14:12:05;1.52;;;0.85;;
30681;SDS011;17439;48.092;11.842;2024-02-04T14:14:32;2.67;;;0.73;;
30681;SDS011;17439;48.092;11.842;2024-02-04T14:17:00;6.35;;;0.95;;
30681;SDS011;17439;48.092;11.842;2024-02-04T14:19:26;4.18;;;1.10;;
30681;SDS011;17439;48.092;11.842;2024-02-04T14:21:53;5.07;;;1.10;;
30681;SDS011;17439;48.092;11.842;2024-02-04T14:24:20;10.80;;;1.60;;
30681;SDS011;17439;48.092;11.842;2024-02-04T14:26:47;6.85;;;1.65;;
30681;SDS011;17439;48.092;11.842;2024-02-04T14:29:14;5.18;;;1.58;;
30681;SDS011;17439;48.092;11.842;2024-02-04T14:31:44;2.38;;;0.88;;
30681;SDS011;17439;48.092;11.842;2024-02-04T14:34:11;4.00;;;1.92;;
30681;SDS011;17439;48.092;11.842;2024-02-04T14:36:38;6.77;;;2.73;;
30681;SDS011;17439;48.092;11.842;2024-02-04T14:39:05;17.00;;;4.70;;
30681;SDS011;17439;48.092;11.842;2024-02-04T14:41:35;2.50;;;1.10;;
30681;SDS011;17439;48.092;11.842;2024-02-04T14:44:02;4.60;;;0.85;;
30681;SDS011;17439;48.092;11.842;2024-02-04T14:46:29;3.28;;;1.10;;
30681;SDS011;17439;48.092;11.842;2024-02-04T14:48:56;2.35;;;0.80;;
30681;SDS011;17439;48.092;11.842;2024-02-04T14:51:23;2.25;;;0.90;;
30681;SDS011;17439;48.092;11.842;2024-02-04T14:53:49;5.55;;;0.90;;
30681;SDS011;17439;48.092;11.842;2024-02-04T14:56:16;2.40;;;0.73;;
30681;SDS011;17439;48.092;11.842;2024-02-04T14:58:43;4.25;;;1.00;;